This is the latest recevied weather packets stored in our database for station/object VE6KEE-13. If no packets are shown the sender has not sent any weather packets the latest 10 day(s).
| Time | Temp. | Humidity | Pressure | Rain* | Wind** | Luminosity | Snow |
|---|---|---|---|---|---|---|---|
| 1777862931 | 15° C | 25% | 1012.1 hPa | 0 mm | - | - | - |
| 1777862036 | 15.56° C | 24% | 1011.9 hPa | 0 mm | - | - | - |
| 1777861131 | 16.11° C | 23% | 1011.6 hPa | 0 mm | - | - | - |
| 1777860231 | 16.67° C | 22% | 1011.4 hPa | 0 mm | - | - | - |
| 1777859331 | 17.78° C | 21% | 1010.9 hPa | 0 mm | - | - | - |
| 1777858430 | 18.89° C | 21% | 1010.6 hPa | 0 mm | - | - | - |
| 1777857530 | 18.89° C | 21% | 1010.2 hPa | 0 mm | - | - | - |
| 1777856630 | 19.44° C | 21% | 1010.1 hPa | 0 mm | - | - | - |
| 1777855725 | 20° C | 20% | 1010 hPa | 0 mm | - | - | - |
| 1777854825 | 20.56° C | 20% | 1010.1 hPa | 0 mm | - | - | - |
| 1777853925 | 21.11° C | 19% | 1010 hPa | 0 mm | - | - | - |
| 1777853025 | 21.11° C | 19% | 1010 hPa | 0 mm | - | - | - |
| 1777852125 | 21.67° C | 17% | 1009.7 hPa | 0 mm | - | - | - |
| 1777851225 | 22.22° C | 17% | 1009.7 hPa | 0 mm | - | - | - |
| 1777850320 | 22.78° C | 16% | 1009.6 hPa | 0 mm | - | - | - |
| 1777847619 | 23.89° C | 14% | 1009.2 hPa | 0 mm | - | - | - |
| 1777846719 | 24.44° C | 13% | 1009.1 hPa | 0 mm | - | - | - |
| 1777845824 | 25° C | 13% | 1009.1 hPa | 0 mm | - | - | - |
| 1777844919 | 26.11° C | 12% | 1009.1 hPa | 0 mm | - | - | - |
| 1777844014 | 26.67° C | 11% | 1009.1 hPa | 0 mm | - | - | - |
| 1777843114 | 26.67° C | 12% | 1009.3 hPa | 0 mm | - | - | - |
| 1777842214 | 26.67° C | 12% | 1009.6 hPa | 0 mm | - | - | - |
| 1777841314 | 26.67° C | 12% | 1009.5 hPa | 0 mm | - | - | - |
| 1777840419 | 26.11° C | 13% | 1009.6 hPa | 0 mm | - | - | - |
| 1777839514 | 26.11° C | 13% | 1009.9 hPa | 0 mm | - | - | - |
* Rain since midnight (hover to see other rain measurements)
** Current wind speed in m/s (hover to see current wind gust speed)